Airfield :







YOU CAN JOIN US ON...

 
LOGIN :

Register | Disclaimer

   EN    FR    IT 

 









Legend :    VFR   Marginal VFR   IFR   Intensive IFR   Very Intensive IFR
Visi :
Ceiling :
>= 8 km
>= 3000ft
5 to 8 km
1000 to 3000 ft
1500m to 5 km
500 to 1000 ft
800 to 1500m
200 to 500 ft
< 800m
< 200 ft
Symbols :   Thunderstorms  Fog  Heavy snow  Heavy precipitations  Wind > 20 kt






- Airport Elevation : 489 ft


KHUL - Houlton International

CURRENT METAR :
  • 110553Z AUTO 29008G20KT 10SM SCT120 01/M09 A2989 RMK AO2 PK WND 29027/0508 SLP125 T00061089 10067 20006 51035

EXPIRED METARs :
  • 110453Z AUTO 27011KT 10SM BKN120 02/M07 A2985 RMK AO2 SLP114 T00171072 401000017
  • 110353Z AUTO 27014G20KT 10SM CLR 02/M07 A2983 RMK AO2 SLP107 T00221067

TAF KHUL
Valid from the 11 at 06:00 until the 12 at 06:00 UTC


110531Z 1106/1206 27011G17KT P6SM BKN060
FM110900 30007KT P6SM SCT060
FM120300 16005KT P6SM VCSH BKN050



MET'MAP, your aeronautical weather chart ! - Copyright ORBIFLY December 2007 - Disclaimer

ORBIFLY MET'MAP TEAM :

Programming & Development : Alexandra Zaïnal
Concept & original design : Baudouin d'Aumeries
Assistance for programming : Marc-Olivier Méhu
Technical & hardware support : Manuel Goepfert

Contact : metmap@orbifly.com




SOURCES & CREDITS :

   NOAA